Lake Annette, Missouri
Current Conditions -  °F | °C
As of 10:53 AM on Saturday 20 Dec 2014 (Local Time) from KOJC Reporting Station
Clear Clear  
Wind Chill: 32°   Ceiling: Unl
Heat Index: 39°   Visibility: 8mi
Dew Point: 35°   Wind: 10mph
Humidity: 86%   Direction: 200°SSW
Pressure: 30.17"   Gusts: NA
Location:  38.6151°N, 94.4966°W
Report Text: KOJC 201653Z 20009KT 8SM CLR 04/02 A3017 RMK AO2 SLP223 T00390017
Loading
Personal Weather Stations






























Interactive Weather Map New forecast layout! Learn more

10-Day Weather Forecast

Advertisements
Track Severe Weather on mobile